• Join FlightAware (Why Join?)
  • Login
  • US Flag 
01:59AM EDT


 

Airport Tracker/Info


-or-


 

Live Flight TrackerFlight Track Log ✈ UAL5859 ✈ 24-Jul-2013 ✈ KBTV - KORD

Flight Track Log - Related Links

Times and Time Zones

All times are in EDT time to prevent confusion due to time zone crossing. See the UAL5859 flight status page for this flight to view local times or setup timezone preferences in your user account.

Time Position Orientation Groundspeed Altitude Reporting Facility
EDT Latitude Longitude Course Direction KTS MPH feet Rate Location/Type
06:04PM 44.4933 -73.3219 258° West 211 243 5,100  Level Boston Center
06:05PM 44.4758 -73.4175 256° West 241 277 7,200 2,040 Climbing Boston Center
06:06PM 44.3351 -73.5320 256° West  Level FlightAware Approximate
06:06PM 44.4564 -73.5161 255° West 264 304 9,200  Level Boston Center
06:07PM 44.3140 -73.6509 258° West  Level FlightAware Approximate
06:07PM 44.4364 -73.6233 255° West 276 318 10,700  Level Boston Center
06:08PM 44.2956 -73.7707 258° West  Level FlightAware Approximate
06:08PM 44.4144 -73.7478 256° West 313 360 11,400  Level Boston Center
06:09PM 44.2779 -73.8905 259° West  Level FlightAware Approximate
06:09PM 44.3897 -73.8781 255° West 333 383 12,700  Level Boston Center
06:10PM 44.3653 -74.0111 256° West 347 399 14,100 1,200 Climbing Boston Center
06:11PM 44.3450 -74.1150 255° West 347 399 15,100 1,200 Climbing Boston Center
06:12PM 44.3178 -74.2564 255° West 347 399 16,500 1,260 Climbing Boston Center
06:13PM 44.2928 -74.3892 255° West 352 405 17,700 1,200 Climbing Boston Center
06:14PM 44.2656 -74.5186 254° West 358 412 18,900 1,200 Climbing Boston Center
06:15PM 44.2400 -74.6539 255° West 358 412 20,200 1,200 Climbing Boston Center
06:16PM 44.2125 -74.7864 254° West 358 412 21,300 1,080 Climbing Boston Center
06:17PM 44.1889 -74.9186 256° West 358 412 22,400 1,140 Climbing Boston Center
06:18PM 44.1628 -75.0536 255° West 358 412 23,600 1,140 Climbing Boston Center
06:19PM 44.1347 -75.1883 254° West 358 412 24,700 1,080 Climbing Boston Center
06:20PM 44.1083 -75.3258 255° West 358 412 25,800 1,080 Climbing Boston Center
06:21PM 44.0800 -75.4544 253° West 358 412 26,900 1,080 Climbing Boston Center
06:22PM 44.0558 -75.5864 256° West 358 412 28,000 1,080 Climbing Boston Center
06:23PM 44.0272 -75.7119 252° West 358 412 29,100 1,080 Climbing Boston Center
06:24PM 44.0025 -75.8433 255° West 358 412 30,200 1,080 Climbing Boston Center
06:25PM 43.9758 -75.9717 254° West 353 406 31,300 1,080 Climbing Boston Center
06:26PM 43.9508 -76.0972 255° West 348 400 32,400 1,080 Climbing Boston Center
06:27PM 43.9403 -76.2292 264° West 348 400 33,500 1,080 Climbing Boston Center
06:28PM 43.9300 -76.3553 264° West 348 400 34,600 1,080 Climbing Boston Center
06:29PM 43.9169 -76.4872 262° West 348 400 35,700 660 Climbing Boston Center
06:30PM 43.9083 -76.6106 265° West 348 400 36,000 120 Climbing Boston Center
06:31PM 43.8833 -76.7167 252° West 350 403 36,000  Level Toronto Center
06:32PM 43.8667 -76.8500 260° West 370 426 36,000  Level Toronto Center
06:33PM 43.8500 -77.0000 261° West 380 437 36,000  Level Toronto Center
06:34PM 43.8333 -77.1667 262° West 390 449 36,000  Level Toronto Center
06:35PM 43.8167 -77.3000 260° West 390 449 36,000  Level Toronto Center
06:36PM 43.8167 -77.4333 270° West 380 437 36,000  Level Toronto Center
06:37PM 43.8000 -77.6000 262° West 380 437 36,000  Level Toronto Center
06:38PM 43.7833 -77.7333 260° West 390 449 36,000  Level Toronto Center
06:40PM 43.7643 -77.9062 261° West  Level FlightAware Approximate
06:40PM 43.7500 -78.0333 261° West 390 449 36,000  Level Toronto Center
06:41PM 43.7333 -78.1833 261° West 390 449 36,000  Level Toronto Center
06:42PM 43.7167 -78.3333 261° West 400 460 36,000  Level Toronto Center
06:43PM 43.7000 -78.4833 261° West 400 460 36,000  Level Toronto Center
06:44PM 43.6833 -78.6333 261° West 400 460 36,000  Level Toronto Center
06:45PM 43.6833 -78.7833 270° West 400 460 36,000  Level Toronto Center
06:46PM 43.6667 -78.9333 261° West 400 460 36,000  Level Toronto Center
06:47PM 43.6500 -79.1000 262° West 410 472 36,000  Level Toronto Center
06:48PM 43.6333 -79.2333 260° West 400 460 36,000  Level Toronto Center
06:50PM 43.6000 -79.5167 261° West 380 437 36,000  Level Toronto Center
06:51PM 43.5833 -79.6833 262° West 390 449 36,000  Level Toronto Center
06:52PM 43.5667 -79.8167 260° West 380 437 36,000  Level Toronto Center
06:53PM 43.5500 -79.9833 262° West 390 449 36,000  Level Toronto Center
06:54PM 43.5500 -80.1333 270° West 400 460 36,000  Level Toronto Center
06:55PM 43.5333 -80.3000 262° West 400 460 36,000  Level Toronto Center
06:56PM 43.5167 -80.4333 260° West 400 460 36,000  Level Toronto Center
06:57PM 43.5000 -80.6000 262° West 400 460 36,000  Level Toronto Center
06:58PM 43.4833 -80.7333 260° West 400 460 36,000  Level Toronto Center
06:59PM 43.4500 -80.9000 255° West 400 460 36,000  Level Toronto Center
07:00PM 43.4333 -81.0500 261° West 400 460 36,000  Level Toronto Center
07:01PM 43.4167 -81.2000 261° West 400 460 36,000  Level Toronto Center
07:02PM 43.4000 -81.3500 261° West 400 460 36,000  Level Toronto Center
07:03PM 43.3833 -81.5167 262° West 400 460 36,000  Level Toronto Center
07:04PM 43.3833 -81.6500 270° West 400 460 36,000  Level Toronto Center
07:05PM 43.3667 -81.8167 262° West 400 460 36,000  Level Toronto Center
07:06PM 43.3333 -81.9500 251° West 400 460 36,000  Level Toronto Center
07:07PM 43.3167 -82.1000 261° West 400 460 36,000  Level Toronto Center
07:08PM 43.3000 -82.2667 262° West 400 460 36,000  Level Toronto Center
07:09PM 43.2833 -82.4333 262° West 400 460 36,000  Level Toronto Center
07:10PM 43.2667 -82.5667 260° West 400 460 36,000  Level Toronto Center
07:11PM 43.2556 -82.7069 264° West 406 467 36,000 -300 Level Cleveland Center
07:12PM 43.2172 -82.8508 250° West 411 473 35,500 -840 Descending Cleveland Center
07:13PM 43.1769 -82.9944 249° West 411 473 34,400 -1,080 Descending Cleveland Center
07:14PM 43.1364 -83.1381 249° West 411 473 33,400 -1,080 Descending Cleveland Center
07:15PM 43.0975 -83.2814 250° West 411 473 32,300 -720 Descending Cleveland Center
07:16PM 43.0589 -83.4247 250° West 411 473 32,000 -180 Descending Cleveland Center
07:17PM 43.0156 -83.5706 248° West 411 473 32,000  Level Cleveland Center
07:18PM 42.9761 -83.7161 250° West 411 473 32,000  Level Cleveland Center
07:19PM 42.9531 -83.8739 259° West 411 473 32,000  Level Cleveland Center
07:20PM 42.9381 -84.0292 263° West 416 479 32,000  Level Cleveland Center
07:21PM 42.9228 -84.1869 263° West 416 479 32,000  Level Cleveland Center
07:22PM 42.9056 -84.3392 261° West 421 484 32,000  Level Cleveland Center
07:24PM 42.8831 -84.5894 263° West 422 486 32,000  Level Chicago Center
07:25PM 42.8672 -84.7478 262° West 422 486 32,000  Level Chicago Center
07:26PM 42.8506 -84.9072 262° West 424 488 32,000  Level Chicago Center
07:27PM 42.8333 -85.0658 262° West 424 488 32,000 -720 Level Chicago Center
07:28PM 42.8161 -85.2233 262° West 422 486 30,600 -1,020 Descending Chicago Center
07:29PM 42.7994 -85.3769 262° West 412 474 30,000 -300 Descending Chicago Center
07:30PM 42.7747 -85.5614 260° West 411 473 30,000 -1,020 Level Chicago Center
07:31PM 42.7464 -85.7206 256° West 423 487 27,900 -2,280 Descending Chicago Center
07:32PM 42.7169 -85.8819 256° West 433 498 25,400 -2,280 Descending Chicago Center
07:33PM 42.6881 -86.0414 256° West 433 498 23,200 -2,220 Descending Chicago Center
07:34PM 42.6589 -86.2008 256° West 432 497 20,900 -1,800 Descending Chicago Center
07:35PM 42.6297 -86.3511 255° West 416 479 19,600 -1,740 Descending Chicago Center
07:36PM 42.6028 -86.4997 256° West 407 468 17,400 -2,100 Descending Chicago Center
07:37PM 42.5756 -86.6422 256° West 393 452 15,300 -2,160 Descending Chicago Center
07:38PM 42.5400 -86.8086 254° West 386 444 13,000 -1,980 Descending Chicago Center
07:39PM 42.5042 -86.9369 249° West 371 427 11,300 -1,440 Descending Chicago Center
07:40PM 42.4678 -87.0628 249° West 360 414 10,000 -660 Descending Chicago Center
07:41PM 42.4344 -87.1864 250° West 351 404 10,000  Level Chicago Center
07:42PM 42.4003 -87.3083 249° West 348 400 10,000  Level Chicago Center
07:43PM 42.3639 -87.4425 250° West 345 397 10,000  Level Chicago Center
07:44PM 42.3197 -87.5572 243° Southwest 354 407 10,000  Level Chicago Center
07:45PM 42.2425 -87.6358 217° Southwest 349 402 10,000  Level Chicago Center
07:46PM 42.1506 -87.7342 218° Southwest 353 406 10,000 -300 Level Chicago Center
07:48PM 42.0983 -87.8156 229° Southwest 304 350 9,400 -840 Descending Chicago Center
07:49PM 42.0664 -87.9072 245° Southwest 279 321 8,300 -1,020 Descending Chicago Center
07:50PM 42.0481 -88.0028 256° West 272 313 7,300 -1,080 Descending Chicago Center
07:51PM 42.0417 -88.1097 265° West 244 281 6,100 -1,140 Descending Chicago Center
07:52PM 42.0347 -88.1864 263° West 224 258 5,000 -1,020 Descending Chicago Center
07:53PM 41.9831 -88.1881 181° South 198 228 4,000 -780 Descending Chicago Center
07:54PM 41.9681 -88.1272 108° East 200 230 3,500 -780 Descending Chicago Center
07:55PM 41.9686 -88.0592 89° East 193 222 2,500 -960 Descending Chicago Center
07:56PM 41.9667 -88.0000 93° East 143 165 1,700 -960 Descending Chicago TRACON